world map with LGEL marked

LGEL - Airport

This information may not be accurate or current and is not valid for navigation or flight planning. No warranty of fitness for any purpose is made or implied.

flag of Greece

Donate via PayPal

Additional information is available on the NEW Great Circle Mapper

Location
City:  Elefsis, Greece
ICAO:LGEL

Details
Type:Airport (Aerodrome, Airfield)
Use:Military
Latitude:38°03'50"N (38.063831)
Longitude:23°33'22"E (23.556011)
Datum:WGS 1984
Elevation:143 ft (44 m)
Runways:1
Longest:8985 × 131 ft (2739 × 40 m)

Time
Timezone:UTC+2 (DST+5)
Local Time:

Weather
METAR:LGEL  050150Z 36006KT 9999 FEW015 SCT025 BKN070 12/05 Q1027
TAF:LGEL  042300Z 0500/0524 01012KT 9999 SCT018 BKN070= TAF LGIR 042300Z 0500/0524 18008KT 9999 SCT020 BKN080 PROB30 TEMPO 0500/0512 5000 RA BKN020 BECMG 0504/0506 36012KT

Related Locations
Nearby:
Farthest:RMT: 11346 mi / 18260 km
Rimatara [Rimatara Airport], PF

Find:

   beyond  
but within

Other Information
Maps:
Sources:

  

Airport Diagram

Airport diagram for LGEL

Airport diagram (OBSOLETE) from NGA

 


Great Circle Mapper   Great Circle Mapper
Great Circle Mapper FAQ   Great Circle Mapper FAQ
  Karl's Home Page
KLSē   KLSē Home
   GC on Facebook
Airlines of the World   Airlines of the World
Donate via PayPal


Copyright © 2004-2016, Karl L. Swartz. All rights reserved.
All trademarks mentioned herein belong to their respective owners.

Please see credits for attribution and copyright information.

Karl Swartz <karl@kls2.com>
  Powered by FreeBSD
Valid HTML 4.01!
Labeled with ICRA
hCard Microformat
Geo Microformat